sensor_id;sensor_type;location;lat;lon;timestamp;P1;durP1;ratioP1;P2;durP2;ratioP2
10509;SDS011;5303;53.266;10.410;2023-12-20T00:01:19;6.80;;;2.90;;
10509;SDS011;5303;53.266;10.410;2023-12-20T00:03:44;11.27;;;3.17;;
10509;SDS011;5303;53.266;10.410;2023-12-20T00:06:09;8.63;;;2.63;;
10509;SDS011;5303;53.266;10.410;2023-12-20T00:08:35;8.37;;;2.70;;
10509;SDS011;5303;53.266;10.410;2023-12-20T00:11:00;12.03;;;3.13;;
10509;SDS011;5303;53.266;10.410;2023-12-20T00:13:25;12.73;;;2.70;;
10509;SDS011;5303;53.266;10.410;2023-12-20T00:15:51;7.13;;;2.83;;
10509;SDS011;5303;53.266;10.410;2023-12-20T00:18:16;7.87;;;2.67;;
10509;SDS011;5303;53.266;10.410;2023-12-20T00:20:41;8.53;;;2.60;;
10509;SDS011;5303;53.266;10.410;2023-12-20T00:23:07;13.10;;;3.87;;
10509;SDS011;5303;53.266;10.410;2023-12-20T00:25:33;11.17;;;3.10;;
10509;SDS011;5303;53.266;10.410;2023-12-20T00:27:58;13.27;;;2.50;;
10509;SDS011;5303;53.266;10.410;2023-12-20T00:30:24;11.30;;;3.07;;
10509;SDS011;5303;53.266;10.410;2023-12-20T00:32:49;5.67;;;2.40;;
10509;SDS011;5303;53.266;10.410;2023-12-20T00:35:15;7.27;;;2.60;;
10509;SDS011;5303;53.266;10.410;2023-12-20T00:37:41;11.10;;;2.90;;
10509;SDS011;5303;53.266;10.410;2023-12-20T00:40:07;8.37;;;2.13;;
10509;SDS011;5303;53.266;10.410;2023-12-20T00:42:33;12.80;;;2.57;;
10509;SDS011;5303;53.266;10.410;2023-12-20T00:44:58;8.17;;;2.40;;
10509;SDS011;5303;53.266;10.410;2023-12-20T00:47:24;9.67;;;2.30;;
10509;SDS011;5303;53.266;10.410;2023-12-20T00:49:50;11.23;;;2.67;;
10509;SDS011;5303;53.266;10.410;2023-12-20T00:52:15;9.20;;;2.77;;
10509;SDS011;5303;53.266;10.410;2023-12-20T00:54:42;6.93;;;2.53;;
10509;SDS011;5303;53.266;10.410;2023-12-20T00:57:07;9.57;;;2.47;;
10509;SDS011;5303;53.266;10.410;2023-12-20T00:59:32;7.27;;;2.37;;
10509;SDS011;5303;53.266;10.410;2023-12-20T01:01:58;9.73;;;3.13;;
10509;SDS011;5303;53.266;10.410;2023-12-20T01:04:23;10.20;;;2.97;;
10509;SDS011;5303;53.266;10.410;2023-12-20T01:06:48;10.57;;;2.80;;
10509;SDS011;5303;53.266;10.410;2023-12-20T01:09:13;7.20;;;2.37;;
10509;SDS011;5303;53.266;10.410;2023-12-20T01:11:39;17.57;;;3.00;;
10509;SDS011;5303;53.266;10.410;2023-12-20T01:14:04;12.77;;;2.77;;
10509;SDS011;5303;53.266;10.410;2023-12-20T01:16:30;10.93;;;2.60;;
10509;SDS011;5303;53.266;10.410;2023-12-20T01:18:55;9.63;;;2.87;;
10509;SDS011;5303;53.266;10.410;2023-12-20T01:21:20;9.93;;;2.87;;
10509;SDS011;5303;53.266;10.410;2023-12-20T01:23:46;14.13;;;3.13;;
10509;SDS011;5303;53.266;10.410;2023-12-20T01:26:11;11.37;;;2.60;;
10509;SDS011;5303;53.266;10.410;2023-12-20T01:28:37;10.43;;;3.00;;
10509;SDS011;5303;53.266;10.410;2023-12-20T01:31:03;12.07;;;3.20;;
10509;SDS011;5303;53.266;10.410;2023-12-20T01:33:28;8.67;;;2.70;;
10509;SDS011;5303;53.266;10.410;2023-12-20T01:35:54;7.00;;;2.40;;
10509;SDS011;5303;53.266;10.410;2023-12-20T01:38:19;13.93;;;3.80;;
10509;SDS011;5303;53.266;10.410;2023-12-20T01:40:45;11.93;;;2.70;;
10509;SDS011;5303;53.266;10.410;2023-12-20T01:43:10;8.57;;;2.97;;
10509;SDS011;5303;53.266;10.410;2023-12-20T01:45:37;10.87;;;2.83;;
10509;SDS011;5303;53.266;10.410;2023-12-20T01:48:02;12.43;;;3.17;;
10509;SDS011;5303;53.266;10.410;2023-12-20T01:50:30;12.47;;;3.23;;
10509;SDS011;5303;53.266;10.410;2023-12-20T01:52:56;13.43;;;3.37;;
10509;SDS011;5303;53.266;10.410;2023-12-20T01:55:25;8.60;;;2.43;;
10509;SDS011;5303;53.266;10.410;2023-12-20T01:57:52;12.83;;;3.53;;
10509;SDS011;5303;53.266;10.410;2023-12-20T02:00:18;11.23;;;3.23;;
10509;SDS011;5303;53.266;10.410;2023-12-20T02:02:43;12.80;;;3.57;;
10509;SDS011;5303;53.266;10.410;2023-12-20T02:05:10;12.50;;;3.20;;
10509;SDS011;5303;53.266;10.410;2023-12-20T02:07:36;13.67;;;3.10;;
10509;SDS011;5303;53.266;10.410;2023-12-20T02:10:01;13.10;;;3.30;;
10509;SDS011;5303;53.266;10.410;2023-12-20T02:12:27;11.23;;;3.13;;
10509;SDS011;5303;53.266;10.410;2023-12-20T02:14:52;12.30;;;3.17;;
10509;SDS011;5303;53.266;10.410;2023-12-20T02:17:19;14.50;;;3.23;;
10509;SDS011;5303;53.266;10.410;2023-12-20T02:19:44;11.53;;;4.07;;
10509;SDS011;5303;53.266;10.410;2023-12-20T02:22:12;14.90;;;3.03;;
10509;SDS011;5303;53.266;10.410;2023-12-20T02:24:38;11.90;;;3.13;;
10509;SDS011;5303;53.266;10.410;2023-12-20T02:27:04;10.97;;;3.07;;
10509;SDS011;5303;53.266;10.410;2023-12-20T02:29:31;12.03;;;3.50;;
10509;SDS011;5303;53.266;10.410;2023-12-20T02:31:57;13.27;;;3.60;;
10509;SDS011;5303;53.266;10.410;2023-12-20T02:34:25;9.90;;;3.70;;
10509;SDS011;5303;53.266;10.410;2023-12-20T02:36:50;16.07;;;3.47;;
10509;SDS011;5303;53.266;10.410;2023-12-20T02:39:16;10.90;;;4.03;;
10509;SDS011;5303;53.266;10.410;2023-12-20T02:41:41;13.63;;;3.70;;
10509;SDS011;5303;53.266;10.410;2023-12-20T02:44:06;13.33;;;4.40;;
10509;SDS011;5303;53.266;10.410;2023-12-20T02:46:32;10.43;;;3.80;;
10509;SDS011;5303;53.266;10.410;2023-12-20T02:48:57;14.77;;;4.40;;
10509;SDS011;5303;53.266;10.410;2023-12-20T02:51:22;16.47;;;4.63;;
10509;SDS011;5303;53.266;10.410;2023-12-20T02:53:47;13.60;;;4.40;;
10509;SDS011;5303;53.266;10.410;2023-12-20T02:56:13;11.37;;;4.27;;
10509;SDS011;5303;53.266;10.410;2023-12-20T02:58:39;10.80;;;4.27;;
10509;SDS011;5303;53.266;10.410;2023-12-20T03:01:04;13.83;;;4.97;;
10509;SDS011;5303;53.266;10.410;2023-12-20T03:03:30;14.83;;;4.57;;
10509;SDS011;5303;53.266;10.410;2023-12-20T03:05:55;14.03;;;4.83;;
10509;SDS011;5303;53.266;10.410;2023-12-20T03:08:20;9.87;;;4.93;;
10509;SDS011;5303;53.266;10.410;2023-12-20T03:10:45;12.87;;;4.73;;
10509;SDS011;5303;53.266;10.410;2023-12-20T03:13:11;12.47;;;4.63;;
10509;SDS011;5303;53.266;10.410;2023-12-20T03:15:36;19.50;;;5.07;;
10509;SDS011;5303;53.266;10.410;2023-12-20T03:18:02;12.40;;;5.00;;
10509;SDS011;5303;53.266;10.410;2023-12-20T03:20:27;14.37;;;5.03;;
10509;SDS011;5303;53.266;10.410;2023-12-20T03:22:53;10.17;;;4.60;;
10509;SDS011;5303;53.266;10.410;2023-12-20T03:25:18;10.30;;;4.47;;
10509;SDS011;5303;53.266;10.410;2023-12-20T03:27:43;10.83;;;4.47;;
10509;SDS011;5303;53.266;10.410;2023-12-20T03:30:09;7.97;;;3.83;;
10509;SDS011;5303;53.266;10.410;2023-12-20T03:32:34;17.80;;;5.27;;
10509;SDS011;5303;53.266;10.410;2023-12-20T03:34:59;13.00;;;4.20;;
10509;SDS011;5303;53.266;10.410;2023-12-20T03:37:25;7.73;;;3.90;;
10509;SDS011;5303;53.266;10.410;2023-12-20T03:39:50;12.60;;;4.30;;
10509;SDS011;5303;53.266;10.410;2023-12-20T03:42:15;14.23;;;3.90;;
10509;SDS011;5303;53.266;10.410;2023-12-20T03:44:41;10.57;;;4.07;;
10509;SDS011;5303;53.266;10.410;2023-12-20T03:47:06;14.70;;;4.00;;
10509;SDS011;5303;53.266;10.410;2023-12-20T03:49:32;12.37;;;3.57;;
10509;SDS011;5303;53.266;10.410;2023-12-20T03:51:57;10.67;;;4.00;;
10509;SDS011;5303;53.266;10.410;2023-12-20T03:54:24;6.07;;;2.83;;
10509;SDS011;5303;53.266;10.410;2023-12-20T03:56:49;11.20;;;3.87;;
10509;SDS011;5303;53.266;10.410;2023-12-20T03:59:15;9.47;;;3.20;;
10509;SDS011;5303;53.266;10.410;2023-12-20T04:01:43;9.37;;;3.27;;
10509;SDS011;5303;53.266;10.410;2023-12-20T04:04:09;6.67;;;3.10;;
10509;SDS011;5303;53.266;10.410;2023-12-20T04:06:34;9.23;;;3.23;;
10509;SDS011;5303;53.266;10.410;2023-12-20T04:09:00;10.03;;;3.23;;
10509;SDS011;5303;53.266;10.410;2023-12-20T04:11:25;9.63;;;3.10;;
10509;SDS011;5303;53.266;10.410;2023-12-20T04:13:50;12.33;;;3.00;;
10509;SDS011;5303;53.266;10.410;2023-12-20T04:16:15;7.33;;;3.23;;
10509;SDS011;5303;53.266;10.410;2023-12-20T04:18:41;9.27;;;3.43;;
10509;SDS011;5303;53.266;10.410;2023-12-20T04:21:06;9.70;;;3.53;;
10509;SDS011;5303;53.266;10.410;2023-12-20T04:23:32;10.63;;;3.53;;
10509;SDS011;5303;53.266;10.410;2023-12-20T04:25:57;13.23;;;3.43;;
10509;SDS011;5303;53.266;10.410;2023-12-20T04:28:22;6.90;;;3.10;;
10509;SDS011;5303;53.266;10.410;2023-12-20T04:30:48;10.70;;;3.57;;
10509;SDS011;5303;53.266;10.410;2023-12-20T04:33:13;10.70;;;3.50;;
10509;SDS011;5303;53.266;10.410;2023-12-20T04:35:38;13.03;;;3.37;;
10509;SDS011;5303;53.266;10.410;2023-12-20T04:38:05;8.83;;;2.87;;
10509;SDS011;5303;53.266;10.410;2023-12-20T04:40:31;11.03;;;3.20;;
10509;SDS011;5303;53.266;10.410;2023-12-20T04:42:56;10.97;;;3.67;;
10509;SDS011;5303;53.266;10.410;2023-12-20T04:45:21;11.00;;;3.23;;
10509;SDS011;5303;53.266;10.410;2023-12-20T04:47:48;7.70;;;3.27;;
10509;SDS011;5303;53.266;10.410;2023-12-20T04:50:13;11.33;;;3.73;;
10509;SDS011;5303;53.266;10.410;2023-12-20T04:52:39;10.33;;;3.20;;
10509;SDS011;5303;53.266;10.410;2023-12-20T04:55:05;12.13;;;3.60;;
10509;SDS011;5303;53.266;10.410;2023-12-20T04:57:30;12.43;;;3.53;;
10509;SDS011;5303;53.266;10.410;2023-12-20T04:59:55;11.20;;;4.00;;
10509;SDS011;5303;53.266;10.410;2023-12-20T05:02:21;11.50;;;3.53;;
10509;SDS011;5303;53.266;10.410;2023-12-20T05:04:46;12.27;;;3.77;;
10509;SDS011;5303;53.266;10.410;2023-12-20T05:07:11;8.27;;;3.90;;
10509;SDS011;5303;53.266;10.410;2023-12-20T05:09:36;17.47;;;4.00;;
10509;SDS011;5303;53.266;10.410;2023-12-20T05:12:02;15.40;;;3.80;;
10509;SDS011;5303;53.266;10.410;2023-12-20T05:14:27;11.80;;;3.57;;
10509;SDS011;5303;53.266;10.410;2023-12-20T05:16:52;11.20;;;3.47;;
10509;SDS011;5303;53.266;10.410;2023-12-20T05:19:18;12.87;;;3.70;;
10509;SDS011;5303;53.266;10.410;2023-12-20T05:21:43;9.70;;;4.00;;
10509;SDS011;5303;53.266;10.410;2023-12-20T05:24:08;15.03;;;3.87;;
10509;SDS011;5303;53.266;10.410;2023-12-20T05:26:33;9.17;;;3.77;;
10509;SDS011;5303;53.266;10.410;2023-12-20T05:28:59;12.20;;;3.80;;
10509;SDS011;5303;53.266;10.410;2023-12-20T05:31:24;11.07;;;3.63;;
10509;SDS011;5303;53.266;10.410;2023-12-20T05:33:49;9.70;;;3.80;;
10509;SDS011;5303;53.266;10.410;2023-12-20T05:36:15;11.80;;;3.73;;
10509;SDS011;5303;53.266;10.410;2023-12-20T05:38:40;12.10;;;3.37;;
10509;SDS011;5303;53.266;10.410;2023-12-20T05:41:05;10.63;;;4.00;;
10509;SDS011;5303;53.266;10.410;2023-12-20T05:43:30;12.33;;;3.63;;
10509;SDS011;5303;53.266;10.410;2023-12-20T05:45:56;11.23;;;3.80;;
10509;SDS011;5303;53.266;10.410;2023-12-20T05:48:21;12.50;;;3.90;;
10509;SDS011;5303;53.266;10.410;2023-12-20T05:50:46;13.23;;;3.63;;
10509;SDS011;5303;53.266;10.410;2023-12-20T05:53:11;11.50;;;3.80;;
10509;SDS011;5303;53.266;10.410;2023-12-20T05:55:37;12.63;;;4.00;;
10509;SDS011;5303;53.266;10.410;2023-12-20T05:58:02;16.17;;;4.10;;
10509;SDS011;5303;53.266;10.410;2023-12-20T06:00:28;14.83;;;3.90;;
10509;SDS011;5303;53.266;10.410;2023-12-20T06:02:53;11.63;;;3.43;;
10509;SDS011;5303;53.266;10.410;2023-12-20T06:05:18;11.80;;;4.00;;
10509;SDS011;5303;53.266;10.410;2023-12-20T06:07:44;9.70;;;3.63;;
10509;SDS011;5303;53.266;10.410;2023-12-20T06:10:12;16.13;;;3.77;;
10509;SDS011;5303;53.266;10.410;2023-12-20T06:12:38;10.67;;;3.57;;
10509;SDS011;5303;53.266;10.410;2023-12-20T06:15:04;13.37;;;4.57;;
10509;SDS011;5303;53.266;10.410;2023-12-20T06:17:30;15.70;;;4.60;;
10509;SDS011;5303;53.266;10.410;2023-12-20T06:19:56;17.43;;;4.63;;
10509;SDS011;5303;53.266;10.410;2023-12-20T06:22:21;13.10;;;4.23;;
10509;SDS011;5303;53.266;10.410;2023-12-20T06:24:46;11.33;;;4.67;;
10509;SDS011;5303;53.266;10.410;2023-12-20T06:27:12;9.37;;;4.20;;
10509;SDS011;5303;53.266;10.410;2023-12-20T06:29:37;11.67;;;4.80;;
10509;SDS011;5303;53.266;10.410;2023-12-20T06:32:03;11.57;;;4.50;;
10509;SDS011;5303;53.266;10.410;2023-12-20T06:34:29;17.97;;;4.57;;
10509;SDS011;5303;53.266;10.410;2023-12-20T06:36:54;15.47;;;5.50;;
10509;SDS011;5303;53.266;10.410;2023-12-20T06:39:19;12.67;;;4.77;;
10509;SDS011;5303;53.266;10.410;2023-12-20T06:41:44;15.40;;;4.80;;
10509;SDS011;5303;53.266;10.410;2023-12-20T06:44:10;10.67;;;4.07;;
10509;SDS011;5303;53.266;10.410;2023-12-20T06:46:35;12.30;;;4.27;;
10509;SDS011;5303;53.266;10.410;2023-12-20T06:49:00;16.50;;;4.03;;
10509;SDS011;5303;53.266;10.410;2023-12-20T06:51:26;16.50;;;4.77;;
10509;SDS011;5303;53.266;10.410;2023-12-20T06:53:51;11.23;;;4.33;;
10509;SDS011;5303;53.266;10.410;2023-12-20T06:56:17;15.20;;;3.80;;
10509;SDS011;5303;53.266;10.410;2023-12-20T06:58:42;15.17;;;4.47;;
10509;SDS011;5303;53.266;10.410;2023-12-20T07:01:14;14.73;;;5.20;;
10509;SDS011;5303;53.266;10.410;2023-12-20T07:03:40;11.73;;;4.33;;
10509;SDS011;5303;53.266;10.410;2023-12-20T07:06:05;11.43;;;3.57;;
10509;SDS011;5303;53.266;10.410;2023-12-20T07:08:31;9.13;;;4.23;;
10509;SDS011;5303;53.266;10.410;2023-12-20T07:10:56;9.53;;;4.23;;
10509;SDS011;5303;53.266;10.410;2023-12-20T07:13:21;16.13;;;4.20;;
10509;SDS011;5303;53.266;10.410;2023-12-20T07:15:47;12.73;;;4.00;;
10509;SDS011;5303;53.266;10.410;2023-12-20T07:18:13;13.73;;;4.33;;
10509;SDS011;5303;53.266;10.410;2023-12-20T07:20:38;13.17;;;4.47;;
10509;SDS011;5303;53.266;10.410;2023-12-20T07:23:04;11.37;;;4.40;;
10509;SDS011;5303;53.266;10.410;2023-12-20T07:25:29;14.57;;;3.40;;
10509;SDS011;5303;53.266;10.410;2023-12-20T07:27:57;13.47;;;3.90;;
10509;SDS011;5303;53.266;10.410;2023-12-20T07:30:23;14.13;;;4.17;;
10509;SDS011;5303;53.266;10.410;2023-12-20T07:32:48;10.87;;;3.60;;
10509;SDS011;5303;53.266;10.410;2023-12-20T07:35:13;12.70;;;3.83;;
10509;SDS011;5303;53.266;10.410;2023-12-20T07:37:40;13.47;;;4.00;;
10509;SDS011;5303;53.266;10.410;2023-12-20T07:40:05;10.87;;;4.53;;
10509;SDS011;5303;53.266;10.410;2023-12-20T07:42:31;13.43;;;3.93;;
10509;SDS011;5303;53.266;10.410;2023-12-20T07:44:56;11.17;;;3.67;;
10509;SDS011;5303;53.266;10.410;2023-12-20T07:47:22;13.73;;;4.17;;
10509;SDS011;5303;53.266;10.410;2023-12-20T07:49:48;16.93;;;4.10;;
10509;SDS011;5303;53.266;10.410;2023-12-20T07:52:14;11.70;;;4.03;;
10509;SDS011;5303;53.266;10.410;2023-12-20T07:54:39;13.60;;;3.50;;
10509;SDS011;5303;53.266;10.410;2023-12-20T07:57:05;8.23;;;3.10;;
10509;SDS011;5303;53.266;10.410;2023-12-20T07:59:30;16.37;;;4.77;;
10509;SDS011;5303;53.266;10.410;2023-12-20T08:01:56;8.87;;;3.67;;
10509;SDS011;5303;53.266;10.410;2023-12-20T08:04:21;18.47;;;4.57;;
10509;SDS011;5303;53.266;10.410;2023-12-20T08:06:47;13.80;;;4.33;;
10509;SDS011;5303;53.266;10.410;2023-12-20T08:09:12;16.37;;;4.13;;
10509;SDS011;5303;53.266;10.410;2023-12-20T08:11:37;14.80;;;3.93;;
10509;SDS011;5303;53.266;10.410;2023-12-20T08:14:03;15.70;;;3.83;;
10509;SDS011;5303;53.266;10.410;2023-12-20T08:16:28;15.57;;;4.00;;
10509;SDS011;5303;53.266;10.410;2023-12-20T08:18:53;9.93;;;3.83;;
10509;SDS011;5303;53.266;10.410;2023-12-20T08:21:18;13.60;;;4.17;;
10509;SDS011;5303;53.266;10.410;2023-12-20T08:23:45;11.03;;;3.80;;
10509;SDS011;5303;53.266;10.410;2023-12-20T08:26:12;18.33;;;4.27;;
10509;SDS011;5303;53.266;10.410;2023-12-20T08:28:37;14.10;;;4.03;;
10509;SDS011;5303;53.266;10.410;2023-12-20T08:31:03;14.47;;;3.93;;
10509;SDS011;5303;53.266;10.410;2023-12-20T08:33:28;14.10;;;4.00;;
10509;SDS011;5303;53.266;10.410;2023-12-20T08:35:53;12.07;;;3.57;;
10509;SDS011;5303;53.266;10.410;2023-12-20T08:38:18;18.20;;;4.73;;
10509;SDS011;5303;53.266;10.410;2023-12-20T08:40:44;10.73;;;3.93;;
10509;SDS011;5303;53.266;10.410;2023-12-20T08:43:09;12.13;;;4.00;;
10509;SDS011;5303;53.266;10.410;2023-12-20T08:45:35;15.27;;;4.90;;
10509;SDS011;5303;53.266;10.410;2023-12-20T08:48:00;17.03;;;4.33;;
10509;SDS011;5303;53.266;10.410;2023-12-20T08:50:26;18.10;;;4.97;;
10509;SDS011;5303;53.266;10.410;2023-12-20T08:52:51;14.07;;;5.00;;
10509;SDS011;5303;53.266;10.410;2023-12-20T08:55:16;15.23;;;5.80;;
10509;SDS011;5303;53.266;10.410;2023-12-20T08:57:43;15.40;;;5.00;;
10509;SDS011;5303;53.266;10.410;2023-12-20T09:00:08;14.07;;;4.87;;
10509;SDS011;5303;53.266;10.410;2023-12-20T09:02:34;11.10;;;4.63;;
10509;SDS011;5303;53.266;10.410;2023-12-20T09:05:01;12.77;;;3.97;;
10509;SDS011;5303;53.266;10.410;2023-12-20T09:07:27;18.37;;;4.80;;
10509;SDS011;5303;53.266;10.410;2023-12-20T09:09:55;17.73;;;4.60;;
10509;SDS011;5303;53.266;10.410;2023-12-20T09:12:20;16.97;;;4.40;;
10509;SDS011;5303;53.266;10.410;2023-12-20T09:14:46;14.30;;;4.40;;
10509;SDS011;5303;53.266;10.410;2023-12-20T09:17:13;13.67;;;3.50;;
10509;SDS011;5303;53.266;10.410;2023-12-20T09:19:39;15.60;;;3.97;;
10509;SDS011;5303;53.266;10.410;2023-12-20T09:22:05;17.50;;;4.07;;
10509;SDS011;5303;53.266;10.410;2023-12-20T09:24:30;13.47;;;3.73;;
10509;SDS011;5303;53.266;10.410;2023-12-20T09:26:56;15.17;;;4.77;;
10509;SDS011;5303;53.266;10.410;2023-12-20T09:29:21;11.93;;;3.90;;
10509;SDS011;5303;53.266;10.410;2023-12-20T09:31:47;14.97;;;4.23;;
10509;SDS011;5303;53.266;10.410;2023-12-20T09:34:14;16.20;;;4.37;;
10509;SDS011;5303;53.266;10.410;2023-12-20T09:36:40;11.77;;;4.20;;
10509;SDS011;5303;53.266;10.410;2023-12-20T09:39:11;12.03;;;4.10;;
10509;SDS011;5303;53.266;10.410;2023-12-20T09:41:43;16.20;;;4.47;;
10509;SDS011;5303;53.266;10.410;2023-12-20T09:44:11;12.80;;;4.20;;
10509;SDS011;5303;53.266;10.410;2023-12-20T09:46:42;11.73;;;3.87;;
10509;SDS011;5303;53.266;10.410;2023-12-20T09:49:09;13.77;;;4.70;;
10509;SDS011;5303;53.266;10.410;2023-12-20T09:51:36;9.73;;;3.77;;
10509;SDS011;5303;53.266;10.410;2023-12-20T09:54:03;11.90;;;3.10;;
10509;SDS011;5303;53.266;10.410;2023-12-20T09:56:29;17.83;;;4.57;;
10509;SDS011;5303;53.266;10.410;2023-12-20T09:58:54;10.73;;;4.43;;
10509;SDS011;5303;53.266;10.410;2023-12-20T10:01:20;11.40;;;3.77;;
10509;SDS011;5303;53.266;10.410;2023-12-20T10:03:46;9.77;;;3.10;;
10509;SDS011;5303;53.266;10.410;2023-12-20T10:06:12;3.70;;;1.70;;
10509;SDS011;5303;53.266;10.410;2023-12-20T10:08:38;4.27;;;2.00;;
10509;SDS011;5303;53.266;10.410;2023-12-20T10:11:04;4.63;;;1.77;;
10509;SDS011;5303;53.266;10.410;2023-12-20T10:13:30;5.67;;;1.50;;
10509;SDS011;5303;53.266;10.410;2023-12-20T10:15:55;5.53;;;1.53;;
10509;SDS011;5303;53.266;10.410;2023-12-20T10:18:21;5.60;;;1.97;;
10509;SDS011;5303;53.266;10.410;2023-12-20T10:20:46;5.53;;;1.80;;
10509;SDS011;5303;53.266;10.410;2023-12-20T10:23:12;3.03;;;1.40;;
10509;SDS011;5303;53.266;10.410;2023-12-20T10:25:38;3.17;;;1.70;;
10509;SDS011;5303;53.266;10.410;2023-12-20T10:28:14;4.63;;;1.60;;
10509;SDS011;5303;53.266;10.410;2023-12-20T10:30:44;2.33;;;1.23;;
10509;SDS011;5303;53.266;10.410;2023-12-20T10:33:10;2.93;;;1.47;;
10509;SDS011;5303;53.266;10.410;2023-12-20T10:35:36;2.47;;;1.53;;
10509;SDS011;5303;53.266;10.410;2023-12-20T10:38:03;3.47;;;1.63;;
10509;SDS011;5303;53.266;10.410;2023-12-20T10:40:30;2.70;;;1.50;;
10509;SDS011;5303;53.266;10.410;2023-12-20T10:42:56;3.53;;;1.40;;
10509;SDS011;5303;53.266;10.410;2023-12-20T10:45:24;3.03;;;1.00;;
10509;SDS011;5303;53.266;10.410;2023-12-20T10:47:50;2.03;;;1.07;;
10509;SDS011;5303;53.266;10.410;2023-12-20T10:50:15;3.50;;;1.43;;
10509;SDS011;5303;53.266;10.410;2023-12-20T10:52:41;2.83;;;1.40;;
10509;SDS011;5303;53.266;10.410;2023-12-20T10:55:09;2.17;;;1.03;;
10509;SDS011;5303;53.266;10.410;2023-12-20T10:57:36;1.83;;;1.13;;
10509;SDS011;5303;53.266;10.410;2023-12-20T11:00:01;3.63;;;1.10;;
10509;SDS011;5303;53.266;10.410;2023-12-20T11:02:33;2.87;;;0.93;;
10509;SDS011;5303;53.266;10.410;2023-12-20T11:07:54;3.03;;;0.90;;
10509;SDS011;5303;53.266;10.410;2023-12-20T11:10:31;2.80;;;1.00;;
10509;SDS011;5303;53.266;10.410;2023-12-20T11:13:07;3.53;;;1.20;;
10509;SDS011;5303;53.266;10.410;2023-12-20T11:15:39;1.83;;;1.30;;
10509;SDS011;5303;53.266;10.410;2023-12-20T11:18:05;3.23;;;1.40;;
10509;SDS011;5303;53.266;10.410;2023-12-20T11:20:38;2.00;;;1.33;;
10509;SDS011;5303;53.266;10.410;2023-12-20T11:23:04;2.80;;;1.40;;
10509;SDS011;5303;53.266;10.410;2023-12-20T11:25:34;3.13;;;1.27;;
10509;SDS011;5303;53.266;10.410;2023-12-20T11:28:11;4.17;;;1.40;;
10509;SDS011;5303;53.266;10.410;2023-12-20T11:30:43;4.07;;;1.20;;
10509;SDS011;5303;53.266;10.410;2023-12-20T11:33:12;4.50;;;1.67;;
10509;SDS011;5303;53.266;10.410;2023-12-20T11:35:38;3.47;;;1.37;;
10509;SDS011;5303;53.266;10.410;2023-12-20T11:38:04;4.60;;;1.90;;
10509;SDS011;5303;53.266;10.410;2023-12-20T11:40:32;5.00;;;1.50;;
10509;SDS011;5303;53.266;10.410;2023-12-20T11:42:59;5.97;;;1.83;;
10509;SDS011;5303;53.266;10.410;2023-12-20T11:45:25;5.07;;;1.57;;
10509;SDS011;5303;53.266;10.410;2023-12-20T11:47:51;4.83;;;2.10;;
10509;SDS011;5303;53.266;10.410;2023-12-20T11:50:18;4.93;;;1.90;;
10509;SDS011;5303;53.266;10.410;2023-12-20T11:52:44;4.87;;;2.33;;
10509;SDS011;5303;53.266;10.410;2023-12-20T11:55:09;5.93;;;1.63;;
10509;SDS011;5303;53.266;10.410;2023-12-20T11:57:35;5.67;;;1.90;;
10509;SDS011;5303;53.266;10.410;2023-12-20T12:00:01;3.40;;;2.03;;
10509;SDS011;5303;53.266;10.410;2023-12-20T12:02:31;7.27;;;2.10;;
10509;SDS011;5303;53.266;10.410;2023-12-20T12:04:56;5.23;;;1.80;;
10509;SDS011;5303;53.266;10.410;2023-12-20T12:07:23;4.93;;;1.80;;
10509;SDS011;5303;53.266;10.410;2023-12-20T12:09:49;7.77;;;1.80;;
10509;SDS011;5303;53.266;10.410;2023-12-20T12:12:14;5.83;;;2.30;;
10509;SDS011;5303;53.266;10.410;2023-12-20T12:14:40;5.63;;;2.10;;
10509;SDS011;5303;53.266;10.410;2023-12-20T12:17:12;8.03;;;2.20;;
10509;SDS011;5303;53.266;10.410;2023-12-20T12:19:38;5.33;;;2.03;;
10509;SDS011;5303;53.266;10.410;2023-12-20T12:24:36;12.63;;;2.83;;
10509;SDS011;5303;53.266;10.410;2023-12-20T12:27:02;12.27;;;2.40;;
10509;SDS011;5303;53.266;10.410;2023-12-20T12:29:28;6.47;;;1.97;;
10509;SDS011;5303;53.266;10.410;2023-12-20T12:31:54;8.70;;;2.20;;
10509;SDS011;5303;53.266;10.410;2023-12-20T12:34:20;5.57;;;2.13;;
10509;SDS011;5303;53.266;10.410;2023-12-20T12:36:45;9.57;;;2.60;;
10509;SDS011;5303;53.266;10.410;2023-12-20T12:39:13;6.50;;;2.40;;
10509;SDS011;5303;53.266;10.410;2023-12-20T12:41:42;8.07;;;2.30;;
10509;SDS011;5303;53.266;10.410;2023-12-20T12:44:08;8.43;;;2.40;;
10509;SDS011;5303;53.266;10.410;2023-12-20T12:46:33;7.77;;;2.10;;
10509;SDS011;5303;53.266;10.410;2023-12-20T12:48:59;8.00;;;1.93;;
10509;SDS011;5303;53.266;10.410;2023-12-20T12:51:24;9.87;;;2.23;;
10509;SDS011;5303;53.266;10.410;2023-12-20T12:53:50;6.37;;;2.10;;
10509;SDS011;5303;53.266;10.410;2023-12-20T12:56:15;6.17;;;1.83;;
10509;SDS011;5303;53.266;10.410;2023-12-20T12:58:41;6.93;;;1.93;;
10509;SDS011;5303;53.266;10.410;2023-12-20T13:01:06;5.10;;;1.90;;
10509;SDS011;5303;53.266;10.410;2023-12-20T13:03:32;5.97;;;1.80;;
10509;SDS011;5303;53.266;10.410;2023-12-20T13:05:57;6.00;;;2.13;;
10509;SDS011;5303;53.266;10.410;2023-12-20T13:08:22;6.97;;;2.27;;
10509;SDS011;5303;53.266;10.410;2023-12-20T13:10:48;7.87;;;2.17;;
10509;SDS011;5303;53.266;10.410;2023-12-20T13:13:13;6.33;;;1.70;;
10509;SDS011;5303;53.266;10.410;2023-12-20T13:15:38;6.60;;;2.03;;
10509;SDS011;5303;53.266;10.410;2023-12-20T13:18:04;5.90;;;1.77;;
10509;SDS011;5303;53.266;10.410;2023-12-20T13:20:31;7.30;;;2.07;;
10509;SDS011;5303;53.266;10.410;2023-12-20T13:22:56;7.47;;;1.93;;
10509;SDS011;5303;53.266;10.410;2023-12-20T13:25:21;5.30;;;1.40;;
10509;SDS011;5303;53.266;10.410;2023-12-20T13:27:47;3.00;;;1.70;;
10509;SDS011;5303;53.266;10.410;2023-12-20T13:30:12;14.23;;;2.30;;
10509;SDS011;5303;53.266;10.410;2023-12-20T13:32:38;7.13;;;2.27;;
10509;SDS011;5303;53.266;10.410;2023-12-20T13:35:03;5.03;;;2.63;;
10509;SDS011;5303;53.266;10.410;2023-12-20T13:37:29;7.30;;;2.37;;
10509;SDS011;5303;53.266;10.410;2023-12-20T13:39:54;6.77;;;2.47;;
10509;SDS011;5303;53.266;10.410;2023-12-20T13:42:20;8.47;;;2.30;;
10509;SDS011;5303;53.266;10.410;2023-12-20T13:44:45;7.47;;;2.10;;
10509;SDS011;5303;53.266;10.410;2023-12-20T13:47:11;10.53;;;2.67;;
10509;SDS011;5303;53.266;10.410;2023-12-20T13:49:37;8.33;;;2.53;;
10509;SDS011;5303;53.266;10.410;2023-12-20T13:52:02;14.97;;;3.33;;
10509;SDS011;5303;53.266;10.410;2023-12-20T13:54:29;8.97;;;3.00;;
10509;SDS011;5303;53.266;10.410;2023-12-20T13:56:54;12.50;;;2.97;;
10509;SDS011;5303;53.266;10.410;2023-12-20T13:59:20;10.50;;;2.83;;
10509;SDS011;5303;53.266;10.410;2023-12-20T14:01:45;8.33;;;3.00;;
10509;SDS011;5303;53.266;10.410;2023-12-20T14:04:11;12.00;;;3.87;;
10509;SDS011;5303;53.266;10.410;2023-12-20T14:06:36;10.97;;;3.37;;
10509;SDS011;5303;53.266;10.410;2023-12-20T14:09:02;13.57;;;3.33;;
10509;SDS011;5303;53.266;10.410;2023-12-20T14:11:28;8.50;;;3.10;;
10509;SDS011;5303;53.266;10.410;2023-12-20T14:13:53;11.10;;;3.43;;
10509;SDS011;5303;53.266;10.410;2023-12-20T14:16:22;13.50;;;3.97;;
10509;SDS011;5303;53.266;10.410;2023-12-20T14:18:49;12.17;;;3.60;;
10509;SDS011;5303;53.266;10.410;2023-12-20T14:21:16;11.70;;;3.93;;
10509;SDS011;5303;53.266;10.410;2023-12-20T14:23:42;15.33;;;4.30;;
10509;SDS011;5303;53.266;10.410;2023-12-20T14:26:07;11.93;;;4.17;;
10509;SDS011;5303;53.266;10.410;2023-12-20T14:28:33;9.73;;;3.10;;
10509;SDS011;5303;53.266;10.410;2023-12-20T14:30:58;15.73;;;3.73;;
10509;SDS011;5303;53.266;10.410;2023-12-20T14:33:23;18.40;;;4.93;;
10509;SDS011;5303;53.266;10.410;2023-12-20T14:35:49;14.03;;;4.20;;
10509;SDS011;5303;53.266;10.410;2023-12-20T14:38:14;11.53;;;3.80;;